Time;durP1;ratioP1;P1;durP2;ratioP2;P2;SDS_P1;SDS_P2;PMS_P1;PMS_P2;Temp;Humidity;BMP_temperature;BMP_pressure;BME280_temperature;BME280_humidity;BME280_pressure;Samples;Min_cycle;Max_cycle;Signal;HPM_P1;HPM_P2
2023/05/27 04:00:43;;;;;;;4.30;2.77;;;17.30;61.60;;;;;;5967327;23;20385;-76
2023/05/27 04:03:10;;;;;;;3.73;2.40;;;17.30;61.90;;;;;;5036051;28;20451;-76
2023/05/27 04:05:37;;;;;;;5.57;2.83;;;17.30;61.70;;;;;;5036346;28;20443;-76
2023/05/27 04:08:04;;;;;;;5.17;3.23;;;17.30;61.90;;;;;;5036032;28;20451;-76
2023/05/27 04:10:31;;;;;;;5.20;2.57;;;17.30;61.80;;;;;;5035957;28;20858;-77
2023/05/27 04:12:58;;;;;;;3.97;2.67;;;17.30;62.00;;;;;;5035967;28;20501;-76
2023/05/27 04:15:26;;;;;;;4.10;2.27;;;17.30;62.00;;;;;;5036400;28;20522;-76
2023/05/27 04:17:54;;;;;;;4.20;2.47;;;17.30;62.20;;;;;;5035874;28;20447;-77
2023/05/27 04:20:21;;;;;;;4.40;2.50;;;17.30;62.30;;;;;;5035732;28;20475;-77
2023/05/27 04:22:48;;;;;;;4.60;2.47;;;17.30;62.20;;;;;;5035835;28;20452;-76
2023/05/27 04:25:15;;;;;;;3.53;2.47;;;17.30;62.30;;;;;;5035801;28;20451;-76
2023/05/27 04:27:42;;;;;;;4.93;2.60;;;17.30;62.50;;;;;;5035753;28;20456;-76
2023/05/27 04:30:09;;;;;;;4.40;2.70;;;17.40;62.70;;;;;;5035678;28;20451;-76
2023/05/27 04:32:37;;;;;;;6.67;2.53;;;17.40;62.50;;;;;;5035584;28;20541;-76
2023/05/27 04:35:08;;;;;;;4.30;2.87;;;17.40;63.00;;;;;;5035704;28;20545;-76
2023/05/27 04:37:35;;;;;;;3.73;2.27;;;17.40;63.00;;;;;;5035311;28;20440;-77
2023/05/27 04:40:03;;;;;;;4.73;2.40;;;17.40;62.60;;;;;;5034307;28;20447;-77
2023/05/27 04:42:32;;;;;;;4.57;2.50;;;17.50;63.00;;;;;;5035362;28;20525;-76
2023/05/27 04:44:59;;;;;;;4.73;3.27;;;17.50;64.70;;;;;;5035129;28;20451;-75
2023/05/27 04:47:26;;;;;;;5.00;2.80;;;17.50;63.70;;;;;;5035313;28;20505;-76
2023/05/27 04:49:53;;;;;;;5.07;2.23;;;17.60;63.20;;;;;;5035331;28;20474;-76
2023/05/27 04:52:23;;;;;;;4.67;2.57;;;17.70;62.90;;;;;;5035168;28;20518;-76
2023/05/27 04:54:49;;;;;;;4.60;3.10;;;17.70;63.50;;;;;;5035741;28;20452;-75
2023/05/27 04:57:18;;;;;;;4.50;2.87;;;17.70;63.10;;;;;;5034893;28;20940;-76
2023/05/27 04:59:58;;;;;;;2.80;2.07;;;17.70;62.90;;;;;;5035092;28;20440;-75
2023/05/27 05:02:33;;;;;;;3.93;1.90;;;17.80;63.10;;;;;;5034598;28;20856;-76
2023/05/27 05:05:00;;;;;;;4.33;2.43;;;17.80;63.20;;;;;;5035133;28;20438;-75
2023/05/27 05:07:28;;;;;;;4.30;2.80;;;17.90;63.30;;;;;;5035006;28;20448;-78
2023/05/27 05:09:55;;;;;;;4.67;2.67;;;17.90;62.60;;;;;;5034874;28;20452;-76
2023/05/27 05:12:22;;;;;;;4.87;2.80;;;18.00;62.70;;;;;;5034807;28;20468;-76
2023/05/27 05:14:49;;;;;;;3.67;2.67;;;18.10;62.50;;;;;;5034412;28;20828;-75
2023/05/27 05:17:16;;;;;;;4.43;2.90;;;18.00;62.90;;;;;;5034791;28;20458;-75
2023/05/27 05:19:43;;;;;;;3.50;2.73;;;18.10;62.80;;;;;;5034747;28;20447;-75
2023/05/27 05:22:10;;;;;;;3.43;2.30;;;18.10;62.60;;;;;;5034310;28;20554;-76
2023/05/27 05:24:38;;;;;;;3.77;2.63;;;18.20;62.80;;;;;;5034616;28;20542;-76
2023/05/27 05:27:06;;;;;;;7.10;2.60;;;18.40;62.70;;;;;;5034573;28;20501;-76
2023/05/27 05:29:33;;;;;;;5.67;2.60;;;18.50;62.20;;;;;;5034783;28;20451;-76
2023/05/27 05:31:59;;;;;;;4.20;2.43;;;18.60;62.00;;;;;;5034358;28;20463;-76
2023/05/27 05:34:26;;;;;;;4.30;2.50;;;18.70;61.90;;;;;;5034455;28;20501;-76
2023/05/27 05:36:53;;;;;;;6.20;2.60;;;18.90;60.70;;;;;;5034325;28;20539;-76
2023/05/27 05:39:20;;;;;;;3.07;2.67;;;18.90;62.00;;;;;;5034349;28;20455;-76
2023/05/27 05:41:48;;;;;;;3.60;2.03;;;19.00;61.10;;;;;;5033933;28;20916;-75
2023/05/27 05:44:15;;;;;;;5.20;2.90;;;19.20;60.90;;;;;;5034225;28;20539;-77
2023/05/27 05:46:42;;;;;;;5.23;2.87;;;19.20;59.90;;;;;;5034180;28;20797;-77
2023/05/27 05:49:09;;;;;;;4.57;2.50;;;19.10;59.80;;;;;;5034176;28;20443;-77
2023/05/27 05:51:36;;;;;;;4.50;2.30;;;19.30;59.80;;;;;;5033774;28;20537;-77
2023/05/27 05:54:02;;;;;;;4.13;2.90;;;19.40;60.30;;;;;;5033823;28;20531;-76
2023/05/27 05:56:29;;;;;;;4.27;2.50;;;19.50;60.20;;;;;;5033669;28;20999;-76
2023/05/27 05:58:57;;;;;;;3.90;2.53;;;19.60;59.50;;;;;;5033973;28;20459;-77
2023/05/27 06:01:26;;;;;;;3.30;2.23;;;19.80;59.40;;;;;;5033653;28;20545;-76
2023/05/27 06:03:53;;;;;;;2.97;2.03;;;19.80;59.10;;;;;;5033980;28;20459;-75
2023/05/27 06:06:20;;;;;;;4.27;2.80;;;19.80;58.70;;;;;;5033929;28;20439;-76
2023/05/27 06:08:46;;;;;;;4.93;2.87;;;19.60;59.80;;;;;;5033816;28;20447;-76
2023/05/27 06:11:13;;;;;;;4.13;2.47;;;19.70;59.20;;;;;;5033461;28;20522;-76
2023/05/27 06:13:50;;;;;;;4.03;2.53;;;19.70;58.80;;;;;;5033820;28;20796;-76
2023/05/27 06:16:18;;;;;;;4.80;3.20;;;19.70;58.90;;;;;;5033221;28;20483;-75
2023/05/27 06:18:45;;;;;;;3.97;2.30;;;19.80;58.30;;;;;;5033674;28;20448;-76
2023/05/27 06:21:12;;;;;;;4.23;3.13;;;19.90;58.00;;;;;;5033592;28;20471;-76
2023/05/27 06:23:39;;;;;;;3.97;2.10;;;19.90;57.90;;;;;;5033251;28;20851;-76
2023/05/27 06:26:06;;;;;;;6.00;3.10;;;19.90;59.00;;;;;;5033221;28;20809;-76
2023/05/27 06:28:32;;;;;;;4.97;2.90;;;19.90;58.20;;;;;;5033553;28;20444;-76
2023/05/27 06:30:59;;;;;;;3.57;2.40;;;20.00;58.20;;;;;;5033390;28;20467;-76
2023/05/27 06:33:27;;;;;;;5.50;2.40;;;20.20;57.60;;;;;;5033514;28;20458;-76
2023/05/27 06:35:54;;;;;;;3.83;2.70;;;20.40;58.10;;;;;;5033363;28;20525;-76
2023/05/27 06:38:21;;;;;;;5.20;2.90;;;20.60;57.70;;;;;;5033383;28;20525;-76
2023/05/27 06:40:47;;;;;;;3.30;2.37;;;20.70;56.70;;;;;;5033285;28;20464;-76
2023/05/27 06:43:14;;;;;;;3.90;2.47;;;21.00;56.70;;;;;;5033290;28;20455;-76
2023/05/27 06:45:41;;;;;;;4.33;2.37;;;21.20;56.10;;;;;;5033481;28;20451;-77
2023/05/27 06:48:08;;;;;;;5.70;3.10;;;21.20;57.00;;;;;;5034174;28;20530;-77
2023/05/27 06:50:36;;;;;;;5.00;2.77;;;21.20;57.00;;;;;;5033171;28;20974;-77
2023/05/27 06:53:02;;;;;;;4.00;2.70;;;21.20;55.50;;;;;;5033282;28;20505;-75
2023/05/27 06:55:29;;;;;;;3.90;2.47;;;21.30;54.60;;;;;;5033162;28;20561;-76
2023/05/27 06:57:56;;;;;;;4.33;2.50;;;21.00;55.60;;;;;;5033851;28;20460;-76
2023/05/27 07:00:22;;;;;;;3.40;1.83;;;20.90;56.80;;;;;;5032879;28;20451;-77
2023/05/27 07:02:49;;;;;;;3.97;2.60;;;21.10;56.40;;;;;;5033109;28;20460;-76
2023/05/27 07:05:16;;;;;;;5.10;2.30;;;20.70;55.30;;;;;;5037304;28;20501;-77
2023/05/27 07:07:44;;;;;;;4.53;3.00;;;20.30;56.80;;;;;;5037140;28;20447;-76
2023/05/27 07:10:11;;;;;;;4.43;2.83;;;20.40;57.10;;;;;;5037128;28;20447;-77
2023/05/27 07:12:37;;;;;;;4.87;2.57;;;19.80;57.30;;;;;;5036992;28;20497;-77
2023/05/27 07:15:06;;;;;;;3.13;2.30;;;19.50;57.60;;;;;;5037148;28;20501;-77
2023/05/27 07:17:32;;;;;;;4.80;2.37;;;19.50;59.00;;;;;;5037002;28;20509;-77
2023/05/27 07:19:59;;;;;;;3.13;2.43;;;19.40;60.10;;;;;;5036971;28;20459;-76
2023/05/27 07:22:26;;;;;;;3.37;2.27;;;19.30;59.70;;;;;;5036836;28;20476;-77
2023/05/27 07:24:54;;;;;;;5.20;2.50;;;19.70;58.90;;;;;;5036545;28;20937;-76
2023/05/27 07:27:21;;;;;;;3.83;1.90;;;20.00;59.40;;;;;;5036573;28;21003;-77
2023/05/27 07:29:48;;;;;;;3.33;2.20;;;20.10;57.80;;;;;;5036731;28;20443;-77
2023/05/27 07:32:14;;;;;;;6.30;2.97;;;20.20;57.40;;;;;;5036531;28;20976;-77
2023/05/27 07:34:41;;;;;;;3.97;2.83;;;20.40;57.50;;;;;;5037377;28;20459;-77
2023/05/27 07:37:08;;;;;;;7.90;2.97;;;20.50;58.70;;;;;;5036266;28;20999;-77
2023/05/27 07:39:34;;;;;;;4.27;2.60;;;20.30;58.90;;;;;;5036605;28;20798;-77
2023/05/27 07:42:02;;;;;;;4.70;2.90;;;20.30;58.60;;;;;;5036510;28;20471;-77
2023/05/27 07:44:30;;;;;;;3.93;2.23;;;20.60;58.40;;;;;;5036527;28;20503;-77
2023/05/27 07:46:56;;;;;;;4.27;2.83;;;20.80;58.00;;;;;;5036750;28;20538;-76
2023/05/27 07:49:24;;;;;;;4.80;2.53;;;20.90;55.90;;;;;;5036476;28;20443;-76
2023/05/27 07:51:51;;;;;;;5.03;2.30;;;20.80;56.80;;;;;;5036379;28;20471;-76
2023/05/27 07:54:18;;;;;;;3.47;2.27;;;21.10;57.50;;;;;;5036299;28;20501;-77
2023/05/27 07:56:45;;;;;;;3.10;2.50;;;21.30;55.90;;;;;;5036229;28;20506;-77
2023/05/27 07:59:13;;;;;;;4.20;2.67;;;21.20;57.00;;;;;;5035994;28;20897;-77
2023/05/27 08:01:40;;;;;;;3.60;2.40;;;21.60;57.50;;;;;;5035948;28;21122;-77
2023/05/27 08:04:07;;;;;;;3.87;2.37;;;21.40;55.50;;;;;;5036180;28;20451;-77
2023/05/27 08:06:33;;;;;;;4.10;2.80;;;21.20;56.20;;;;;;5035779;28;20955;-76
2023/05/27 08:09:01;;;;;;;3.50;2.83;;;21.30;55.80;;;;;;5036046;28;20503;-77
2023/05/27 08:11:28;;;;;;;4.40;2.80;;;21.20;56.10;;;;;;5035827;28;20975;-77
2023/05/27 08:13:54;;;;;;;3.17;2.50;;;21.00;56.90;;;;;;5035903;28;20501;-77
2023/05/27 08:16:22;;;;;;;3.67;2.50;;;20.80;57.60;;;;;;5035624;28;20624;-77
2023/05/27 08:18:50;;;;;;;4.07;2.67;;;21.10;57.70;;;;;;5036041;28;20468;-77
2023/05/27 08:21:17;;;;;;;3.47;2.93;;;21.40;58.50;;;;;;5035879;28;20474;-77
2023/05/27 08:23:44;;;;;;;4.70;2.70;;;21.50;56.90;;;;;;5035507;28;20862;-77
2023/05/27 08:26:11;;;;;;;3.10;2.50;;;21.70;56.10;;;;;;5035729;28;20805;-77
2023/05/27 08:28:37;;;;;;;4.40;2.87;;;21.50;56.30;;;;;;5038222;28;20448;-77
2023/05/27 08:31:04;;;;;;;4.30;2.70;;;21.40;56.40;;;;;;5038456;28;20467;-77
2023/05/27 08:33:32;;;;;;;3.23;2.30;;;21.50;57.20;;;;;;5035594;28;20509;-77
2023/05/27 08:35:59;;;;;;;3.63;2.70;;;21.50;56.70;;;;;;5035507;28;20578;-77
2023/05/27 08:38:26;;;;;;;4.17;2.90;;;21.40;57.70;;;;;;5035538;28;20443;-77
2023/05/27 08:40:54;;;;;;;4.20;2.60;;;21.30;57.40;;;;;;5035436;28;20471;-78
2023/05/27 08:43:22;;;;;;;3.30;2.80;;;21.10;57.10;;;;;;5035459;28;20451;-77
2023/05/27 08:45:49;;;;;;;4.07;2.87;;;21.10;58.40;;;;;;5036451;28;20462;-77
2023/05/27 08:48:16;;;;;;;5.70;3.17;;;21.10;57.50;;;;;;5035335;28;20460;-77
2023/05/27 08:50:45;;;;;;;4.10;2.70;;;21.10;57.60;;;;;;5035244;28;20522;-77
2023/05/27 08:53:12;;;;;;;3.50;2.30;;;21.20;57.30;;;;;;5035557;28;20446;-77
2023/05/27 08:55:41;;;;;;;4.83;2.80;;;21.30;57.10;;;;;;5035124;28;20444;-76
2023/05/27 08:58:08;;;;;;;3.07;2.60;;;21.70;57.60;;;;;;5034880;28;21026;-77
2023/05/27 09:00:35;;;;;;;3.83;2.47;;;22.00;56.70;;;;;;5035103;28;20534;-77
2023/05/27 09:03:02;;;;;;;7.30;2.73;;;22.30;57.60;;;;;;5034691;28;20486;-77
2023/05/27 09:05:29;;;;;;;4.20;3.20;;;22.30;55.70;;;;;;5035042;28;20448;-77
2023/05/27 09:07:57;;;;;;;3.13;2.53;;;22.40;55.60;;;;;;5034742;28;21005;-77
2023/05/27 09:10:24;;;;;;;5.83;3.17;;;22.60;55.90;;;;;;5034816;28;20448;-78
2023/05/27 09:12:51;;;;;;;4.77;2.63;;;22.30;56.20;;;;;;5034973;28;20497;-76
2023/05/27 09:15:18;;;;;;;4.50;2.70;;;22.50;56.30;;;;;;5034678;28;20456;-77
2023/05/27 09:17:46;;;;;;;3.73;2.87;;;22.70;55.90;;;;;;5034975;28;20480;-77
2023/05/27 09:20:13;;;;;;;4.47;2.63;;;22.80;55.10;;;;;;5034774;28;20493;-77
2023/05/27 09:22:41;;;;;;;3.20;2.20;;;22.90;55.30;;;;;;5034323;28;20977;-76
2023/05/27 09:25:10;;;;;;;4.60;2.37;;;22.90;54.20;;;;;;5034297;28;20929;-77
2023/05/27 09:27:37;;;;;;;3.27;2.40;;;22.90;54.20;;;;;;5033949;28;20493;-77
2023/05/27 09:30:08;;;;;;;3.00;2.60;;;22.70;55.20;;;;;;5034523;28;20451;-77
2023/05/27 09:32:35;;;;;;;3.90;2.70;;;22.40;54.60;;;;;;5034437;28;20521;-77
2023/05/27 09:35:04;;;;;;;3.87;2.60;;;22.10;56.20;;;;;;5034454;28;20478;-77
2023/05/27 09:37:32;;;;;;;3.57;2.70;;;22.50;57.20;;;;;;5034646;28;20480;-77
2023/05/27 09:39:59;;;;;;;4.00;2.80;;;22.80;55.40;;;;;;5034613;28;20554;-77
2023/05/27 09:42:27;;;;;;;5.27;2.57;;;22.80;53.60;;;;;;5033996;28;21003;-77
2023/05/27 09:44:55;;;;;;;3.10;2.63;;;22.60;56.40;;;;;;5034247;28;20498;-77
2023/05/27 09:47:23;;;;;;;3.20;2.50;;;22.80;55.30;;;;;;5034191;28;20494;-77
2023/05/27 09:49:54;;;;;;;3.80;2.70;;;22.90;54.80;;;;;;5034226;28;20451;-77
2023/05/27 09:52:21;;;;;;;3.40;2.63;;;23.10;54.30;;;;;;5034063;28;20552;-77
2023/05/27 09:54:50;;;;;;;3.37;2.70;;;23.10;54.80;;;;;;5034093;28;20447;-77
2023/05/27 09:57:18;;;;;;;3.40;2.87;;;23.20;54.20;;;;;;5033942;28;20483;-78
2023/05/27 09:59:48;;;;;;;4.13;2.93;;;23.20;53.30;;;;;;5034006;28;20448;-77
2023/05/27 10:02:19;;;;;;;3.50;2.37;;;23.10;54.20;;;;;;5033619;28;20478;-77
2023/05/27 10:04:48;;;;;;;5.63;2.97;;;23.40;57.40;;;;;;5034030;28;20623;-77
2023/05/27 10:07:20;;;;;;;2.90;2.50;;;23.80;54.40;;;;;;5033635;28;20951;-77
2023/05/27 10:09:47;;;;;;;4.30;2.87;;;24.30;53.40;;;;;;5033563;28;20475;-77
2023/05/27 10:12:15;;;;;;;3.53;2.83;;;24.50;51.60;;;;;;5033692;28;20494;-77
2023/05/27 10:14:44;;;;;;;3.90;3.00;;;24.70;51.00;;;;;;5034300;28;20501;-77
2023/05/27 10:17:12;;;;;;;3.20;2.50;;;24.50;52.00;;;;;;5033682;28;20475;-77
2023/05/27 10:19:50;;;;;;;5.10;3.00;;;24.70;51.40;;;;;;5033935;28;20452;-78
2023/05/27 10:22:17;;;;;;;4.20;2.90;;;25.00;52.40;;;;;;5033271;28;20517;-77
2023/05/27 10:24:49;;;;;;;5.67;3.20;;;24.90;52.50;;;;;;5033641;28;20510;-77
2023/05/27 10:27:16;;;;;;;3.47;2.40;;;24.60;52.00;;;;;;5033593;28;20434;-77
2023/05/27 10:29:43;;;;;;;4.10;2.30;;;24.70;51.80;;;;;;5033382;28;20944;-78
2023/05/27 10:32:11;;;;;;;3.33;2.57;;;24.70;52.40;;;;;;5033340;28;21007;-77
2023/05/27 10:34:42;;;;;;;4.03;2.20;;;24.70;52.50;;;;;;5033202;28;20866;-77
2023/05/27 10:37:10;;;;;;;3.27;2.80;;;24.50;52.50;;;;;;5033150;28;20517;-77
2023/05/27 10:39:37;;;;;;;3.90;2.70;;;24.70;51.70;;;;;;5033006;28;20454;-77
2023/05/27 10:42:05;;;;;;;3.13;2.70;;;24.40;53.20;;;;;;5033425;28;20468;-77
2023/05/27 10:44:34;;;;;;;3.30;2.50;;;24.30;53.50;;;;;;5033404;28;20451;-77
2023/05/27 10:47:01;;;;;;;3.03;2.73;;;24.40;52.60;;;;;;5033550;28;20493;-77
2023/05/27 10:49:36;;;;;;;4.40;2.50;;;24.30;51.90;;;;;;5033003;28;20955;-77
2023/05/27 10:52:10;;;;;;;4.63;2.77;;;24.20;52.00;;;;;;5032875;28;20977;-77
2023/05/27 10:54:37;;;;;;;4.00;2.47;;;24.30;53.00;;;;;;5033267;28;20501;-76
2023/05/27 10:57:05;;;;;;;4.20;2.63;;;24.60;51.80;;;;;;5033146;28;20553;-77
2023/05/27 10:59:42;;;;;;;6.30;2.73;;;24.50;52.30;;;;;;5033168;28;20452;-77
2023/05/27 11:02:08;;;;;;;4.80;3.27;;;24.70;51.50;;;;;;5032821;28;20558;-77
2023/05/27 11:04:37;;;;;;;3.40;2.40;;;24.50;51.30;;;;;;5032768;28;20855;-77
2023/05/27 11:07:05;;;;;;;3.90;2.37;;;24.70;52.20;;;;;;5033102;28;20447;-77
2023/05/27 11:09:32;;;;;;;4.10;2.70;;;24.70;51.50;;;;;;5033093;28;20467;-77
2023/05/27 11:12:03;;;;;;;3.77;2.60;;;24.80;52.30;;;;;;5032973;28;20471;-77
2023/05/27 11:14:31;;;;;;;4.10;2.83;;;25.00;51.00;;;;;;5032864;28;20929;-77
2023/05/27 11:16:57;;;;;;;3.40;2.63;;;24.80;50.90;;;;;;5032904;28;20487;-77
2023/05/27 11:19:24;;;;;;;4.53;2.43;;;25.00;50.80;;;;;;5032959;28;20498;-75
2023/05/27 11:21:52;;;;;;;4.20;2.60;;;25.10;51.20;;;;;;5032948;28;20471;-75
2023/05/27 11:24:21;;;;;;;3.43;2.40;;;25.10;51.50;;;;;;5032941;28;20447;-75
2023/05/27 11:26:49;;;;;;;3.10;2.53;;;25.30;49.60;;;;;;5033403;28;20448;-76
2023/05/27 11:29:16;;;;;;;3.60;2.40;;;25.40;49.40;;;;;;5033249;28;20454;-76
2023/05/27 11:31:48;;;;;;;3.03;2.53;;;25.60;49.30;;;;;;5032849;28;20467;-76
2023/05/27 11:34:15;;;;;;;3.70;2.20;;;25.70;49.40;;;;;;5033473;28;20436;-76
2023/05/27 11:36:44;;;;;;;3.40;2.23;;;25.80;50.40;;;;;;5032760;28;20447;-76
2023/05/27 11:39:14;;;;;;;3.77;2.67;;;25.90;49.20;;;;;;5032579;28;20960;-76
2023/05/27 11:41:50;;;;;;;3.73;2.60;;;25.90;50.10;;;;;;5032817;28;20554;-75
2023/05/27 11:44:18;;;;;;;3.73;2.60;;;25.60;48.80;;;;;;5032839;28;20431;-75
2023/05/27 11:46:46;;;;;;;4.07;2.47;;;25.50;49.30;;;;;;5032810;28;20474;-76
2023/05/27 11:49:15;;;;;;;5.10;2.60;;;25.50;49.30;;;;;;5033401;28;20449;-75
2023/05/27 11:51:44;;;;;;;3.73;2.10;;;25.60;49.50;;;;;;5036394;28;20459;-76
2023/05/27 11:54:20;;;;;;;4.30;2.70;;;25.40;51.40;;;;;;5036368;28;20451;-76
2023/05/27 11:56:46;;;;;;;3.60;2.97;;;25.90;50.10;;;;;;5036265;28;20951;-75
2023/05/27 11:59:14;;;;;;;3.27;2.73;;;26.00;48.50;;;;;;5036609;28;20521;-75
2023/05/27 12:01:41;;;;;;;5.07;2.90;;;25.90;48.50;;;;;;5036065;28;20485;-75
2023/05/27 12:04:07;;;;;;;4.37;2.30;;;25.40;48.40;;;;;;5036233;28;20867;-75
2023/05/27 12:06:34;;;;;;;2.80;2.30;;;25.10;48.30;;;;;;5036187;28;20447;-76
2023/05/27 12:09:01;;;;;;;3.07;2.60;;;25.10;49.80;;;;;;5036105;28;20446;-76
2023/05/27 12:11:29;;;;;;;3.37;2.43;;;25.40;49.00;;;;;;5036014;28;20477;-76
2023/05/27 12:13:55;;;;;;;3.37;1.93;;;25.60;49.50;;;;;;5036004;28;20502;-76
2023/05/27 12:16:22;;;;;;;3.43;2.40;;;25.90;49.60;;;;;;5035587;28;20485;-76
2023/05/27 12:18:49;;;;;;;3.60;2.90;;;26.10;49.00;;;;;;5035851;28;20541;-75
2023/05/27 12:21:16;;;;;;;2.93;2.23;;;25.80;47.80;;;;;;5035715;28;20471;-76
2023/05/27 12:23:43;;;;;;;3.13;2.30;;;26.00;49.60;;;;;;5035764;28;20505;-76
2023/05/27 12:26:10;;;;;;;3.67;2.60;;;26.20;47.50;;;;;;5035360;28;20943;-75
2023/05/27 12:28:38;;;;;;;3.17;2.60;;;26.00;47.60;;;;;;5035465;28;21000;-75
2023/05/27 12:31:05;;;;;;;3.83;2.60;;;26.10;49.30;;;;;;5035246;28;20875;-75
2023/05/27 12:33:32;;;;;;;3.43;2.70;;;26.20;47.40;;;;;;5035677;28;20494;-75
2023/05/27 12:35:59;;;;;;;3.70;2.57;;;26.10;47.30;;;;;;5035606;28;20447;-75
2023/05/27 12:38:25;;;;;;;4.23;2.57;;;26.40;45.40;;;;;;5035437;28;20483;-77
2023/05/27 12:40:52;;;;;;;3.90;2.93;;;26.40;45.90;;;;;;5035076;28;20523;-75
2023/05/27 12:43:20;;;;;;;3.70;2.70;;;26.50;46.60;;;;;;5035436;28;20521;-75
2023/05/27 12:45:48;;;;;;;4.30;3.03;;;26.60;45.80;;;;;;5035620;28;20490;-75
2023/05/27 12:48:14;;;;;;;3.47;2.70;;;26.70;46.80;;;;;;5035429;28;20462;-75
2023/05/27 12:50:41;;;;;;;4.00;3.00;;;26.70;47.20;;;;;;5035307;28;20522;-75
2023/05/27 12:53:09;;;;;;;2.73;2.40;;;26.70;46.80;;;;;;5035230;28;20456;-76
2023/05/27 12:55:37;;;;;;;3.47;2.70;;;26.50;46.20;;;;;;5035273;28;20462;-76
2023/05/27 12:58:04;;;;;;;3.27;2.97;;;26.50;45.10;;;;;;5035215;28;20480;-73
2023/05/27 13:00:34;;;;;;;3.43;3.13;;;26.20;45.20;;;;;;5034818;28;20452;-75
2023/05/27 13:03:02;;;;;;;3.00;2.70;;;26.30;45.90;;;;;;5034372;28;20463;-75
2023/05/27 13:05:28;;;;;;;3.73;2.37;;;26.60;44.80;;;;;;5034808;28;20864;-75
2023/05/27 13:07:57;;;;;;;3.93;3.03;;;26.60;46.00;;;;;;5034889;28;20497;-76
2023/05/27 13:10:24;;;;;;;3.63;2.60;;;26.60;44.80;;;;;;5034898;28;20444;-76
2023/05/27 13:12:51;;;;;;;3.37;2.80;;;26.40;44.90;;;;;;5034568;28;20818;-75
2023/05/27 13:15:18;;;;;;;3.20;2.77;;;26.40;44.70;;;;;;5034871;28;20447;-76
2023/05/27 13:17:45;;;;;;;3.30;3.00;;;26.30;44.10;;;;;;5034748;28;20574;-76
2023/05/27 13:20:14;;;;;;;3.27;2.60;;;26.30;45.20;;;;;;5034402;28;20994;-76
2023/05/27 13:22:42;;;;;;;3.30;3.00;;;26.40;45.20;;;;;;5034654;28;20519;-76
2023/05/27 13:25:09;;;;;;;5.03;3.20;;;26.60;44.00;;;;;;5034629;28;20451;-75
2023/05/27 13:27:36;;;;;;;3.90;3.10;;;26.70;44.80;;;;;;5034617;28;20436;-76
2023/05/27 13:30:03;;;;;;;3.90;2.90;;;26.90;44.80;;;;;;5034559;28;20474;-76
2023/05/27 13:32:30;;;;;;;2.93;2.37;;;27.00;44.50;;;;;;5034110;28;20976;-75
2023/05/27 13:34:56;;;;;;;3.10;2.70;;;27.30;44.00;;;;;;5034431;28;20459;-76
2023/05/27 13:37:24;;;;;;;3.60;3.30;;;27.10;43.60;;;;;;5034032;28;20928;-76
2023/05/27 13:39:51;;;;;;;4.10;3.00;;;27.00;43.00;;;;;;5034345;28;20452;-76
2023/05/27 13:42:18;;;;;;;5.60;3.40;;;27.00;42.50;;;;;;5034261;28;20463;-76
2023/05/27 13:44:44;;;;;;;3.00;2.70;;;27.00;42.80;;;;;;5034380;28;20497;-76
2023/05/27 13:47:11;;;;;;;3.83;3.30;;;27.00;43.10;;;;;;5034242;28;20448;-76
2023/05/27 13:49:38;;;;;;;4.10;3.17;;;26.80;42.20;;;;;;5034195;28;20440;-76
2023/05/27 13:52:05;;;;;;;4.10;3.10;;;26.60;42.50;;;;;;5034386;28;20521;-76
2023/05/27 13:54:33;;;;;;;4.73;2.70;;;26.20;43.70;;;;;;5034324;28;20538;-76
2023/05/27 13:56:59;;;;;;;3.70;2.40;;;25.90;44.40;;;;;;5033758;28;21003;-76
2023/05/27 13:59:26;;;;;;;3.00;2.60;;;25.90;45.20;;;;;;5033891;28;20491;-76
2023/05/27 14:01:54;;;;;;;6.20;2.80;;;26.20;44.90;;;;;;5033727;28;20479;-76
2023/05/27 14:04:21;;;;;;;3.50;2.90;;;26.40;45.10;;;;;;5033864;28;20455;-76
2023/05/27 14:06:48;;;;;;;3.70;2.47;;;26.70;44.80;;;;;;5034028;28;20483;-76
2023/05/27 14:09:15;;;;;;;2.63;2.33;;;26.80;44.00;;;;;;5033409;28;21002;-76
2023/05/27 14:11:42;;;;;;;3.90;3.17;;;27.10;42.50;;;;;;5033852;28;20469;-76
2023/05/27 14:14:09;;;;;;;2.97;2.67;;;27.30;41.90;;;;;;5033653;28;20444;-76
2023/05/27 14:16:36;;;;;;;4.37;2.70;;;27.40;41.80;;;;;;5033619;28;20452;-76
2023/05/27 14:19:03;;;;;;;3.57;2.50;;;27.60;42.60;;;;;;5033573;28;20530;-76
2023/05/27 14:21:30;;;;;;;4.10;2.70;;;27.70;42.60;;;;;;5033240;28;20474;-76
2023/05/27 14:23:57;;;;;;;4.00;2.60;;;27.40;41.80;;;;;;5033397;28;20851;-78
2023/05/27 14:26:23;;;;;;;3.23;2.60;;;27.40;42.90;;;;;;5033326;28;20994;-78
2023/05/27 14:28:51;;;;;;;2.40;2.10;;;27.30;41.90;;;;;;5033546;28;20448;-78
2023/05/27 14:31:18;;;;;;;3.93;2.60;;;27.50;43.00;;;;;;5033498;28;20919;-78
2023/05/27 14:33:45;;;;;;;3.07;2.53;;;27.80;41.50;;;;;;5033244;28;20444;-78
2023/05/27 14:36:11;;;;;;;3.27;2.40;;;27.90;40.60;;;;;;5033161;28;20937;-78
2023/05/27 14:38:38;;;;;;;3.50;2.60;;;28.00;39.00;;;;;;5033400;28;20475;-78
2023/05/27 14:41:05;;;;;;;2.93;2.30;;;28.00;40.30;;;;;;5032997;28;20895;-78
2023/05/27 14:43:32;;;;;;;3.20;2.90;;;28.00;39.90;;;;;;5033458;28;20451;-78
2023/05/27 14:46:00;;;;;;;3.50;2.53;;;28.00;39.80;;;;;;5033382;28;20512;-78
2023/05/27 14:48:26;;;;;;;3.27;2.73;;;27.80;39.30;;;;;;5033338;28;20497;-78
2023/05/27 14:50:53;;;;;;;4.20;2.40;;;27.80;39.20;;;;;;5033285;28;20467;-78
2023/05/27 14:53:20;;;;;;;3.57;2.50;;;28.00;38.80;;;;;;5033289;28;20482;-78
2023/05/27 14:55:48;;;;;;;2.93;2.40;;;27.80;38.80;;;;;;5033315;28;20447;-78
2023/05/27 14:58:14;;;;;;;5.03;2.90;;;27.80;39.80;;;;;;5033158;28;20562;-78
2023/05/27 15:00:42;;;;;;;2.60;2.30;;;27.70;39.40;;;;;;5033102;28;20469;-79
2023/05/27 15:03:10;;;;;;;3.23;2.50;;;27.90;39.20;;;;;;5033285;28;20494;-78
2023/05/27 15:05:36;;;;;;;3.43;2.50;;;28.00;39.10;;;;;;5033314;28;20452;-78
2023/05/27 15:08:05;;;;;;;2.77;2.10;;;28.10;38.70;;;;;;5033085;28;20502;-78
2023/05/27 15:10:32;;;;;;;2.70;2.20;;;28.00;38.50;;;;;;5032748;28;20999;-79
2023/05/27 15:12:58;;;;;;;2.63;2.23;;;27.70;38.20;;;;;;5033137;28;20878;-78
2023/05/27 15:15:26;;;;;;;3.20;2.43;;;27.60;38.00;;;;;;5033090;28;20455;-78
2023/05/27 15:17:52;;;;;;;3.10;2.33;;;27.50;38.00;;;;;;5032670;28;20466;-77
2023/05/27 15:20:20;;;;;;;2.73;1.80;;;27.70;39.00;;;;;;5032767;28;20940;-78
2023/05/27 15:22:47;;;;;;;3.60;2.00;;;27.80;37.80;;;;;;5033091;28;20497;-78
2023/05/27 15:25:14;;;;;;;3.33;2.30;;;27.70;37.70;;;;;;5035214;28;20458;-78
2023/05/27 15:27:41;;;;;;;2.50;2.10;;;27.70;37.70;;;;;;5037179;28;20538;-78
2023/05/27 15:30:08;;;;;;;4.93;2.33;;;27.60;37.90;;;;;;5036876;28;20502;-78
2023/05/27 15:32:36;;;;;;;3.10;2.10;;;27.40;38.10;;;;;;5036827;28;20875;-78
2023/05/27 15:35:04;;;;;;;3.10;2.13;;;27.30;38.10;;;;;;5036833;28;20451;-78
2023/05/27 15:37:32;;;;;;;3.47;2.50;;;27.10;39.10;;;;;;5036523;28;20948;-78
2023/05/27 15:39:58;;;;;;;3.33;2.20;;;26.70;38.80;;;;;;5036337;28;21019;-78
2023/05/27 15:42:25;;;;;;;2.30;1.87;;;26.50;40.50;;;;;;5036760;28;20890;-78
2023/05/27 15:44:52;;;;;;;4.20;2.63;;;26.30;39.80;;;;;;5036548;28;20450;-78
2023/05/27 15:47:19;;;;;;;3.20;2.23;;;26.20;39.80;;;;;;5036283;28;20485;-78
2023/05/27 15:49:45;;;;;;;2.87;1.80;;;26.00;40.40;;;;;;5036598;28;20448;-78
2023/05/27 15:52:12;;;;;;;3.63;2.07;;;26.00;41.90;;;;;;5036405;28;20506;-78
2023/05/27 15:54:41;;;;;;;3.10;2.57;;;26.10;40.60;;;;;;5036449;28;20479;-78
2023/05/27 15:57:08;;;;;;;3.00;2.20;;;26.40;40.20;;;;;;5036472;28;20455;-78
2023/05/27 15:59:35;;;;;;;2.93;2.10;;;26.60;40.00;;;;;;5036352;28;20479;-78
2023/05/27 16:02:03;;;;;;;3.93;2.00;;;26.60;39.60;;;;;;5036095;28;20542;-77
2023/05/27 16:04:29;;;;;;;3.40;2.17;;;26.30;40.20;;;;;;5036239;28;20813;-77
2023/05/27 16:06:56;;;;;;;3.10;2.30;;;26.10;41.20;;;;;;5036184;28;20501;-77
2023/05/27 16:09:23;;;;;;;4.37;2.13;;;26.00;41.10;;;;;;5036166;28;20454;-77
2023/05/27 16:11:51;;;;;;;3.40;2.53;;;26.00;41.00;;;;;;5035961;28;20507;-77
2023/05/27 16:14:19;;;;;;;2.93;1.90;;;26.20;40.90;;;;;;5043971;23;20984;-78
2023/05/27 16:16:46;;;;;;;3.20;2.00;;;26.30;41.00;;;;;;5035885;28;20455;-77
2023/05/27 16:19:13;;;;;;;2.70;1.60;;;26.40;40.20;;;;;;5035891;28;20479;-78
2023/05/27 16:21:41;;;;;;;4.10;2.17;;;26.20;40.40;;;;;;5036091;28;20447;-79
2023/05/27 16:24:08;;;;;;;5.03;2.17;;;26.00;40.70;;;;;;5035876;28;20474;-79
2023/05/27 16:26:35;;;;;;;2.97;1.77;;;25.90;40.70;;;;;;5035917;28;20447;-78
2023/05/27 16:29:03;;;;;;;3.20;1.67;;;26.00;41.10;;;;;;5035911;28;20439;-79
2023/05/27 16:31:30;;;;;;;2.97;1.90;;;26.00;40.40;;;;;;5035878;28;20447;-79
2023/05/27 16:33:57;;;;;;;2.60;2.10;;;26.00;40.80;;;;;;5035740;28;20467;-79
2023/05/27 16:36:23;;;;;;;2.83;1.93;;;26.00;41.40;;;;;;5035853;28;20455;-79
2023/05/27 16:38:50;;;;;;;7.33;2.30;;;25.90;40.70;;;;;;5035671;28;20483;-78
2023/05/27 16:41:17;;;;;;;3.17;2.23;;;25.80;40.10;;;;;;5035523;28;20451;-78
2023/05/27 16:43:43;;;;;;;3.00;2.20;;;25.90;40.60;;;;;;5035386;28;20498;-78
2023/05/27 16:46:11;;;;;;;2.50;1.93;;;25.80;40.90;;;;;;5035506;28;20439;-78
2023/05/27 16:48:38;;;;;;;3.27;2.10;;;25.70;41.50;;;;;;5035544;28;20440;-78